createdAt,value
2019-03-13T00:01:56.467Z,2.50
2019-03-13T00:04:24.917Z,2.13
2019-03-13T00:06:53.227Z,2.27
2019-03-13T00:09:21.395Z,2.43
2019-03-13T00:11:49.792Z,2.00
2019-03-13T00:14:18.430Z,2.40
2019-03-13T00:16:46.653Z,2.47
2019-03-13T00:19:16.787Z,2.60
2019-03-13T00:21:45.038Z,2.37
2019-03-13T00:24:13.219Z,2.30
2019-03-13T00:26:41.456Z,2.20
2019-03-13T00:29:09.651Z,2.20
2019-03-13T00:31:37.931Z,1.83
2019-03-13T00:34:06.150Z,2.60
2019-03-13T00:36:34.270Z,2.47
2019-03-13T00:39:04.363Z,2.20
2019-03-13T00:41:32.639Z,1.80
2019-03-13T00:44:01.060Z,2.27
2019-03-13T00:46:29.397Z,2.20
2019-03-13T00:48:57.676Z,1.90
2019-03-13T00:51:26.118Z,2.20
2019-03-13T00:53:54.472Z,2.27
2019-03-13T00:56:23.053Z,1.90
2019-03-13T00:58:51.315Z,1.70
2019-03-13T01:01:28.972Z,2.23
2019-03-13T01:04:01.439Z,2.00
2019-03-13T01:06:39.486Z,1.90
2019-03-13T01:09:07.806Z,1.67
2019-03-13T01:11:35.586Z,1.83
2019-03-13T01:14:03.930Z,1.67
2019-03-13T01:16:32.592Z,2.00
2019-03-13T01:19:00.757Z,1.90
2019-03-13T01:21:28.979Z,1.80
2019-03-13T01:23:57.217Z,1.77
2019-03-13T01:26:25.488Z,1.33
2019-03-13T01:28:53.712Z,1.70
2019-03-13T01:31:41.283Z,1.43
2019-03-13T01:34:22.278Z,1.83
2019-03-13T01:36:50.487Z,1.50
2019-03-13T01:39:18.846Z,1.80
2019-03-13T01:41:47.158Z,1.90
2019-03-13T01:44:15.364Z,1.60
2019-03-13T01:46:44.001Z,1.70
2019-03-13T01:49:12.395Z,1.73
2019-03-13T01:51:40.952Z,1.90
2019-03-13T01:54:08.979Z,1.73
2019-03-13T01:56:37.209Z,1.60
2019-03-13T01:59:05.549Z,1.63
2019-03-13T02:01:33.799Z,1.73
2019-03-13T02:04:01.983Z,1.40
2019-03-13T02:06:30.154Z,1.50
2019-03-13T02:08:58.525Z,1.80
2019-03-13T02:11:26.837Z,1.40
2019-03-13T02:13:55.084Z,1.50
2019-03-13T02:16:23.458Z,1.57
2019-03-13T02:18:51.671Z,1.20
2019-03-13T02:21:20.007Z,1.33
2019-03-13T02:23:48.286Z,1.30
2019-03-13T02:26:16.550Z,1.30
2019-03-13T02:28:44.736Z,1.30
2019-03-13T02:31:15.636Z,1.90
2019-03-13T02:33:43.918Z,1.43
2019-03-13T02:36:12.255Z,1.10
2019-03-13T02:38:40.621Z,1.30
2019-03-13T02:41:08.939Z,1.50
2019-03-13T02:43:37.271Z,1.77
2019-03-13T02:46:05.444Z,1.23
2019-03-13T02:48:33.661Z,1.30
2019-03-13T02:51:01.998Z,1.40
2019-03-13T02:53:30.482Z,1.30
2019-03-13T02:55:58.697Z,1.53
2019-03-13T02:58:26.935Z,1.30
2019-03-13T03:01:04.985Z,1.40
2019-03-13T03:03:36.621Z,1.40
2019-03-13T03:06:04.847Z,1.90
2019-03-13T03:08:33.180Z,1.47
2019-03-13T03:11:01.399Z,1.50
2019-03-13T03:13:29.577Z,1.80
2019-03-13T03:15:57.818Z,1.40
2019-03-13T03:18:26.138Z,1.27
2019-03-13T03:20:54.412Z,1.20
2019-03-13T03:23:22.716Z,1.67
2019-03-13T03:25:50.946Z,1.27
2019-03-13T03:28:19.120Z,1.47
2019-03-13T03:30:47.287Z,1.20
2019-03-13T03:33:15.578Z,1.53
2019-03-13T03:35:43.737Z,2.20
2019-03-13T03:38:12.058Z,2.20
2019-03-13T03:40:40.196Z,1.60
2019-03-13T03:43:08.294Z,1.57
2019-03-13T03:45:36.610Z,1.53
2019-03-13T03:48:04.917Z,2.00
2019-03-13T03:50:33.094Z,1.93
2019-03-13T03:53:01.332Z,1.60
2019-03-13T03:55:29.536Z,1.50
2019-03-13T03:57:57.713Z,1.50
2019-03-13T04:00:26.009Z,1.40
2019-03-13T04:02:54.281Z,1.77
2019-03-13T04:05:22.526Z,1.40
2019-03-13T04:07:50.799Z,1.57
2019-03-13T04:10:18.838Z,1.63
2019-03-13T04:12:46.978Z,1.43
2019-03-13T04:15:15.471Z,1.40
2019-03-13T04:20:57.941Z,1.40
2019-03-13T04:23:26.138Z,1.40
2019-03-13T04:25:54.316Z,1.40
2019-03-13T04:28:23.641Z,1.83
2019-03-13T04:30:53.061Z,1.80
2019-03-13T04:33:21.428Z,2.10
2019-03-13T04:35:49.750Z,1.73
2019-03-13T04:38:17.943Z,1.47
2019-03-13T04:40:45.781Z,1.77
2019-03-13T04:43:14.030Z,1.80
2019-03-13T04:45:42.261Z,1.70
2019-03-13T04:48:10.474Z,1.63
2019-03-13T04:50:38.748Z,1.70
2019-03-13T04:53:06.918Z,1.70
2019-03-13T04:55:35.259Z,1.60
2019-03-13T04:58:03.692Z,1.80
2019-03-13T05:00:31.703Z,1.60
2019-03-13T05:02:59.878Z,1.90
2019-03-13T05:05:57.505Z,1.90
2019-03-13T05:08:45.360Z,2.10
2019-03-13T05:11:13.725Z,1.80
2019-03-13T05:13:41.918Z,1.77
2019-03-13T05:16:10.199Z,3.03
2019-03-13T05:18:38.626Z,3.17
2019-03-13T05:21:08.104Z,3.87
2019-03-13T05:23:36.377Z,3.00
2019-03-13T05:26:04.708Z,3.43
2019-03-13T05:28:32.914Z,3.00
2019-03-13T05:31:00.933Z,3.07
2019-03-13T05:33:29.121Z,3.03
2019-03-13T05:35:57.365Z,2.77
2019-03-13T05:38:26.055Z,3.00
2019-03-13T05:40:54.250Z,3.13
2019-03-13T05:43:22.463Z,3.97
2019-03-13T05:45:50.639Z,3.57
2019-03-13T05:48:18.878Z,4.53
2019-03-13T05:50:47.090Z,4.53
2019-03-13T05:53:15.260Z,7.23
2019-03-13T05:55:43.514Z,5.40
2019-03-13T05:58:11.624Z,5.07
2019-03-13T06:00:39.886Z,4.60
2019-03-13T06:03:08.001Z,4.30
2019-03-13T06:05:36.229Z,4.60
2019-03-13T06:08:04.519Z,4.87
2019-03-13T06:10:32.963Z,4.00
2019-03-13T06:13:01.070Z,4.97
2019-03-13T06:15:29.350Z,4.90
2019-03-13T06:17:57.480Z,5.97
2019-03-13T06:20:25.793Z,6.67
2019-03-13T06:22:54.068Z,8.23
2019-03-13T06:25:22.478Z,10.50
2019-03-13T06:27:50.697Z,9.37
2019-03-13T06:30:18.875Z,8.13
2019-03-13T06:32:47.000Z,7.03
2019-03-13T06:35:15.431Z,7.20
2019-03-13T06:37:43.625Z,6.60
2019-03-13T06:40:11.837Z,6.17
2019-03-13T06:42:40.101Z,6.67
2019-03-13T06:45:09.515Z,7.43
2019-03-13T06:47:37.789Z,6.10
2019-03-13T06:50:09.019Z,5.93
2019-03-13T06:52:37.255Z,5.90
2019-03-13T06:55:05.569Z,6.77
2019-03-13T06:57:33.722Z,6.67
2019-03-13T07:00:39.221Z,7.00
2019-03-13T07:03:29.784Z,5.93
2019-03-13T07:06:17.453Z,6.10
2019-03-13T07:09:13.740Z,4.67
2019-03-13T07:11:48.834Z,4.73
2019-03-13T07:14:36.188Z,4.17
2019-03-13T07:17:19.310Z,3.60
2019-03-13T07:20:05.515Z,3.70
2019-03-13T07:22:56.226Z,3.50
2019-03-13T07:25:49.573Z,3.47
2019-03-13T07:28:27.239Z,4.10
2019-03-13T07:31:11.132Z,3.37
2019-03-13T07:34:01.797Z,3.57
2019-03-13T07:36:37.455Z,3.90
2019-03-13T07:39:41.160Z,3.03
2019-03-13T07:42:31.294Z,3.17
2019-03-13T07:45:18.979Z,3.60
2019-03-13T07:48:06.529Z,3.77
2019-03-13T07:50:57.210Z,3.60
2019-03-13T07:53:35.128Z,3.63
2019-03-13T07:56:35.121Z,3.53
2019-03-13T07:59:25.550Z,3.10
2019-03-13T08:02:03.180Z,2.23
2019-03-13T08:04:50.642Z,2.60
2019-03-13T08:07:36.998Z,3.30
2019-03-13T08:10:23.876Z,3.10
2019-03-13T08:13:07.983Z,3.00
2019-03-13T08:16:01.506Z,3.13
2019-03-13T08:18:49.254Z,3.40
2019-03-13T08:21:46.088Z,3.83
2019-03-13T08:24:29.873Z,3.83
2019-03-13T08:27:17.495Z,1.83
2019-03-13T08:30:07.599Z,1.67
2019-03-13T08:33:01.090Z,1.90
2019-03-13T08:35:40.900Z,2.90
2019-03-13T08:38:13.840Z,4.23
2019-03-13T08:40:53.746Z,3.13
2019-03-13T08:43:56.577Z,2.67
2019-03-13T08:46:44.074Z,2.93
2019-03-13T08:49:35.171Z,3.33
2019-03-13T08:52:12.566Z,3.40
2019-03-13T08:55:02.851Z,1.93
2019-03-13T08:57:59.370Z,3.00
2019-03-13T09:00:42.080Z,2.50
2019-03-13T09:03:29.363Z,2.30
2019-03-13T09:06:11.347Z,2.17
2019-03-13T09:08:59.050Z,1.60
2019-03-13T09:11:58.218Z,2.60
2019-03-13T09:14:45.430Z,1.70
2019-03-13T09:17:41.857Z,1.70
2019-03-13T09:20:29.559Z,2.47
2019-03-13T09:23:15.611Z,2.07
2019-03-13T09:26:08.836Z,2.30
2019-03-13T09:29:01.054Z,2.30
2019-03-13T09:31:47.770Z,2.30
2019-03-13T09:34:25.428Z,2.50
2019-03-13T09:37:07.427Z,2.67
2019-03-13T09:40:00.572Z,2.10
2019-03-13T09:43:00.499Z,1.90
2019-03-13T09:45:51.018Z,2.00
2019-03-13T09:48:38.694Z,2.20
2019-03-13T09:51:28.889Z,2.37
2019-03-13T09:54:22.308Z,2.07
2019-03-13T09:57:27.879Z,1.83
2019-03-13T10:00:33.688Z,1.77
2019-03-13T10:03:21.291Z,1.80
2019-03-13T10:06:14.815Z,2.20
2019-03-13T10:09:05.166Z,1.90
2019-03-13T10:11:55.386Z,2.00
2019-03-13T10:14:55.302Z,1.83
2019-03-13T10:17:41.571Z,1.73
2019-03-13T10:20:31.799Z,1.47
2019-03-13T10:23:22.576Z,1.53
2019-03-13T10:26:08.935Z,1.57
2019-03-13T10:28:56.455Z,1.60
2019-03-13T10:31:53.248Z,1.70
2019-03-13T10:34:32.027Z,1.40
2019-03-13T10:37:28.471Z,1.80
2019-03-13T10:40:16.138Z,1.93
2019-03-13T10:43:03.643Z,2.17
2019-03-13T10:46:09.420Z,1.90
2019-03-13T10:49:12.282Z,1.80
2019-03-13T10:52:02.467Z,1.82
2019-03-13T10:54:40.394Z,1.65
2019-03-13T10:57:15.902Z,1.85
2019-03-13T11:00:09.030Z,1.80
2019-03-13T11:02:47.532Z,2.50
2019-03-13T11:05:33.914Z,1.92
2019-03-13T11:08:14.684Z,2.92
2019-03-13T11:10:53.131Z,3.10
2019-03-13T11:13:37.445Z,1.82
2019-03-13T11:16:16.770Z,1.50
2019-03-13T11:19:10.152Z,2.12
2019-03-13T11:21:53.988Z,1.55
2019-03-13T11:24:40.179Z,3.08
2019-03-13T11:27:25.043Z,1.82
2019-03-13T11:30:02.132Z,1.98
2019-03-13T11:32:45.148Z,1.35
2019-03-13T11:35:35.719Z,2.80
2019-03-13T11:38:20.815Z,1.50
2019-03-13T11:41:17.710Z,1.00
2019-03-13T11:44:02.887Z,1.80
2019-03-13T11:46:49.041Z,1.30
2019-03-13T11:49:31.563Z,1.27
2019-03-13T11:52:18.246Z,1.82
2019-03-13T11:55:15.090Z,1.50
2019-03-13T11:58:05.774Z,3.70
2019-03-13T12:00:54.750Z,4.00
2019-03-13T12:03:57.350Z,2.20
2019-03-13T12:06:48.135Z,1.43
2019-03-13T12:09:47.705Z,1.67
2019-03-13T12:12:44.256Z,1.67
2019-03-13T12:15:19.497Z,1.30
2019-03-13T12:18:19.165Z,1.20
2019-03-13T12:21:03.197Z,1.00
2019-03-13T12:24:03.152Z,1.13
2019-03-13T12:26:49.355Z,1.10
2019-03-13T12:29:42.502Z,1.03
2019-03-13T12:32:23.191Z,1.40
2019-03-13T12:35:02.545Z,1.33
2019-03-13T12:37:55.978Z,1.17
2019-03-13T12:40:58.605Z,1.37
2019-03-13T12:44:04.503Z,1.65
2019-03-13T12:46:52.491Z,1.40
2019-03-13T12:49:36.630Z,1.42
2019-03-13T12:52:27.241Z,1.07
2019-03-13T12:55:07.975Z,1.22
2019-03-13T12:57:50.413Z,1.25
2019-03-13T13:00:44.187Z,1.07
2019-03-13T13:03:40.507Z,1.40
2019-03-13T13:06:27.986Z,1.10
2019-03-13T13:09:09.123Z,1.00
2019-03-13T13:11:59.333Z,1.40
2019-03-13T13:14:45.799Z,1.20
2019-03-13T13:17:23.065Z,1.87
2019-03-13T13:19:51.379Z,1.20
2019-03-13T13:22:19.394Z,1.23
2019-03-13T13:24:47.235Z,1.37
2019-03-13T13:27:15.035Z,0.97
2019-03-13T13:29:42.927Z,1.50
2019-03-13T13:32:10.750Z,1.27
2019-03-13T13:34:38.990Z,1.20
2019-03-13T13:37:06.847Z,1.30
2019-03-13T13:39:34.649Z,1.00
2019-03-13T13:42:02.871Z,1.70
2019-03-13T13:44:30.782Z,1.30
2019-03-13T13:46:59.017Z,1.10
2019-03-13T13:49:27.203Z,1.30
2019-03-13T13:51:55.420Z,1.07
2019-03-13T13:54:23.639Z,1.47
2019-03-13T13:56:51.780Z,1.03
2019-03-13T13:59:20.241Z,0.90
2019-03-13T14:01:48.554Z,1.40
2019-03-13T14:04:16.347Z,1.10
2019-03-13T14:06:44.723Z,1.30
2019-03-13T14:09:12.880Z,1.13
2019-03-13T14:11:40.621Z,1.00
2019-03-13T14:14:08.692Z,1.00
2019-03-13T14:16:36.948Z,1.37
2019-03-13T14:19:05.168Z,1.37
2019-03-13T14:21:33.365Z,1.13
2019-03-13T14:24:01.610Z,1.07
2019-03-13T14:26:29.556Z,1.10
2019-03-13T14:28:57.819Z,1.00
2019-03-13T14:31:26.000Z,1.10
2019-03-13T14:33:54.430Z,1.13
2019-03-13T14:36:22.819Z,0.90
2019-03-13T14:38:51.058Z,1.63
2019-03-13T14:41:19.225Z,1.47
2019-03-13T14:43:47.458Z,1.00
2019-03-13T14:46:15.470Z,1.23
2019-03-13T14:48:43.665Z,1.40
2019-03-13T14:51:11.628Z,1.30
2019-03-13T14:53:39.912Z,1.50
2019-03-13T14:56:07.960Z,1.60
2019-03-13T14:58:36.307Z,1.63
2019-03-13T15:01:04.648Z,1.37
2019-03-13T15:03:32.794Z,1.60
2019-03-13T15:06:01.033Z,1.30
2019-03-13T15:08:29.242Z,1.63
2019-03-13T15:10:57.437Z,1.47
2019-03-13T15:13:25.728Z,1.40
2019-03-13T15:15:54.110Z,1.03
2019-03-13T15:18:22.243Z,1.37
2019-03-13T15:20:50.587Z,1.07
2019-03-13T15:23:18.786Z,1.43
2019-03-13T15:25:47.073Z,0.90
2019-03-13T15:28:17.486Z,1.40
2019-03-13T15:30:45.378Z,1.90
2019-03-13T15:33:32.801Z,1.70
2019-03-13T15:36:01.876Z,1.17
2019-03-13T15:38:30.012Z,1.10
2019-03-13T15:40:58.315Z,1.40
2019-03-13T15:43:26.385Z,1.40
2019-03-13T15:45:54.466Z,1.03
2019-03-13T15:48:22.832Z,1.23
2019-03-13T15:50:51.116Z,1.77
2019-03-13T15:53:19.416Z,1.20
2019-03-13T15:55:47.589Z,2.20
2019-03-13T15:58:16.796Z,2.77
2019-03-13T16:00:45.139Z,2.50
2019-03-13T16:03:13.667Z,2.27
2019-03-13T16:05:41.698Z,1.93
2019-03-13T16:08:09.891Z,1.60
2019-03-13T16:10:38.215Z,2.17
2019-03-13T16:13:06.010Z,1.97
2019-03-13T16:15:35.838Z,2.03
2019-03-13T16:18:04.195Z,2.23
2019-03-13T16:20:32.380Z,1.63
2019-03-13T16:23:00.968Z,1.83
2019-03-13T16:25:28.945Z,2.13
2019-03-13T16:27:57.203Z,3.37
2019-03-13T16:30:26.582Z,4.57
2019-03-13T16:32:54.959Z,3.87
2019-03-13T16:35:26.233Z,3.03
2019-03-13T16:37:53.188Z,2.70
2019-03-13T16:40:21.411Z,3.00
2019-03-13T16:42:49.602Z,2.50
2019-03-13T16:45:17.986Z,1.77
2019-03-13T16:47:46.339Z,1.60
2019-03-13T16:50:15.473Z,2.20
2019-03-13T16:52:43.748Z,1.90
2019-03-13T16:55:13.928Z,1.97
2019-03-13T16:57:42.140Z,1.90
2019-03-13T17:00:13.748Z,1.43
2019-03-13T17:02:42.051Z,1.70
2019-03-13T17:05:11.106Z,1.90
2019-03-13T17:07:39.442Z,2.40
2019-03-13T17:10:08.978Z,2.10
2019-03-13T17:12:37.427Z,1.87
2019-03-13T17:15:07.003Z,2.60
2019-03-13T17:17:35.333Z,3.20
2019-03-13T17:20:04.254Z,2.80
2019-03-13T17:22:32.453Z,3.10
2019-03-13T17:25:00.636Z,3.63
2019-03-13T17:27:28.981Z,3.53
2019-03-13T17:29:57.121Z,2.93
2019-03-13T17:32:25.414Z,3.23
2019-03-13T17:34:53.652Z,3.83
2019-03-13T17:37:21.904Z,3.23
2019-03-13T17:39:50.447Z,3.27
2019-03-13T17:42:18.668Z,3.90
2019-03-13T17:44:46.914Z,3.40
2019-03-13T17:47:15.108Z,3.90
2019-03-13T17:49:43.446Z,4.20
2019-03-13T17:52:11.783Z,3.20
2019-03-13T17:54:40.020Z,3.80
2019-03-13T17:57:08.023Z,4.50
2019-03-13T17:59:36.191Z,4.13
2019-03-13T18:02:04.435Z,5.13
2019-03-13T18:04:32.638Z,5.60
2019-03-13T18:07:00.900Z,6.03
2019-03-13T18:09:29.174Z,6.37
2019-03-13T18:11:57.475Z,6.50
2019-03-13T18:14:29.383Z,7.10
2019-03-13T18:16:55.850Z,6.20
2019-03-13T18:19:24.066Z,7.00
2019-03-13T18:21:51.973Z,6.73
2019-03-13T18:24:20.295Z,6.30
2019-03-13T18:26:48.455Z,5.90
2019-03-13T18:29:16.521Z,5.60
2019-03-13T18:31:44.768Z,5.10
2019-03-13T18:34:12.894Z,5.87
2019-03-13T18:36:50.809Z,7.03
2019-03-13T18:39:19.352Z,7.87
2019-03-13T18:41:47.631Z,10.47
2019-03-13T18:44:15.826Z,16.10
2019-03-13T18:46:44.087Z,12.07
2019-03-13T18:49:12.358Z,9.07
2019-03-13T18:51:40.589Z,9.60
2019-03-13T18:54:08.725Z,9.40
2019-03-13T18:56:38.504Z,10.13
2019-03-13T18:59:07.099Z,10.37
2019-03-13T19:01:35.381Z,10.77
2019-03-13T19:04:03.652Z,10.70
2019-03-13T19:06:31.899Z,10.77
2019-03-13T19:08:59.739Z,10.40
2019-03-13T19:11:27.867Z,8.60
2019-03-13T19:13:58.108Z,7.13
2019-03-13T19:16:25.850Z,4.53
2019-03-13T19:18:53.918Z,4.43
2019-03-13T19:21:22.133Z,4.30
2019-03-13T19:23:50.385Z,4.17
2019-03-13T19:26:18.187Z,3.77
2019-03-13T19:28:46.104Z,4.10
2019-03-13T19:31:13.905Z,3.70
2019-03-13T19:33:42.233Z,9.80
2019-03-13T19:36:10.551Z,3.10
2019-03-13T19:38:41.109Z,2.90
2019-03-13T19:41:09.269Z,2.83
2019-03-13T19:43:37.529Z,2.90
2019-03-13T19:46:05.796Z,3.00
2019-03-13T19:48:34.009Z,3.40
2019-03-13T19:51:03.619Z,3.43
2019-03-13T19:53:31.844Z,5.00
2019-03-13T19:56:00.018Z,4.03
2019-03-13T19:58:28.518Z,4.47
2019-03-13T20:00:56.758Z,7.90
2019-03-13T20:03:24.860Z,9.97
2019-03-13T20:05:53.148Z,11.60
2019-03-13T20:08:20.941Z,12.53
2019-03-13T20:10:49.071Z,17.67
2019-03-13T20:13:17.458Z,12.10
2019-03-13T20:15:45.368Z,10.63
2019-03-13T20:18:13.170Z,13.80
2019-03-13T20:20:41.252Z,11.60
2019-03-13T20:23:09.078Z,10.77
2019-03-13T20:25:37.083Z,9.57
2019-03-13T20:28:05.325Z,10.77
2019-03-13T20:30:33.560Z,14.53
2019-03-13T20:33:01.756Z,15.93
2019-03-13T20:35:29.902Z,11.87
2019-03-13T20:37:58.026Z,8.73
2019-03-13T20:40:26.603Z,6.20
2019-03-13T20:42:55.513Z,5.60
2019-03-13T20:45:25.416Z,6.40
2019-03-13T20:47:53.942Z,7.67
2019-03-13T20:50:35.194Z,6.30
2019-03-13T20:52:52.685Z,8.17
2019-03-13T20:55:20.567Z,5.27
2019-03-13T20:57:49.706Z,4.73
2019-03-13T21:00:22.486Z,4.83
2019-03-13T21:02:52.701Z,4.83
2019-03-13T21:05:21.052Z,4.83
2019-03-13T21:07:49.421Z,4.67
2019-03-13T21:10:18.069Z,5.87
2019-03-13T21:12:46.380Z,4.43
2019-03-13T21:15:14.653Z,3.67
2019-03-13T21:17:42.962Z,3.10
2019-03-13T21:20:12.275Z,3.10
2019-03-13T21:22:40.211Z,3.33
2019-03-13T21:25:09.053Z,3.20
2019-03-13T21:27:37.262Z,2.87
2019-03-13T21:30:06.360Z,2.90
2019-03-13T21:32:34.662Z,3.20
2019-03-13T21:35:02.995Z,3.93
2019-03-13T21:37:30.860Z,3.87
2019-03-13T21:39:59.184Z,3.67
2019-03-13T21:42:26.916Z,3.73
2019-03-13T21:44:54.676Z,3.60
2019-03-13T21:47:22.595Z,3.80
2019-03-13T21:49:50.475Z,3.53
2019-03-13T21:52:18.303Z,3.50
2019-03-13T21:54:46.158Z,3.27
2019-03-13T21:57:13.904Z,3.47
2019-03-13T21:59:42.078Z,3.67
2019-03-13T22:02:10.353Z,3.60
2019-03-13T22:04:38.519Z,2.93
2019-03-13T22:07:06.717Z,3.93
2019-03-13T22:09:34.932Z,3.30
2019-03-13T22:12:03.328Z,3.33
2019-03-13T22:14:31.518Z,3.40
2019-03-13T22:16:59.400Z,3.23
2019-03-13T22:19:27.222Z,3.73
2019-03-13T22:21:55.109Z,3.63
2019-03-13T22:24:42.418Z,3.37
2019-03-13T22:27:10.437Z,3.47
2019-03-13T22:29:38.377Z,3.33
2019-03-13T22:32:06.618Z,3.00
2019-03-13T22:34:35.054Z,3.07
2019-03-13T22:37:03.312Z,3.20
2019-03-13T22:39:31.765Z,2.77
2019-03-13T22:42:00.008Z,3.10
2019-03-13T22:44:28.369Z,3.13
2019-03-13T22:46:56.759Z,3.20
2019-03-13T22:49:26.676Z,2.70
2019-03-13T22:51:54.819Z,2.87
2019-03-13T22:54:22.942Z,3.13
2019-03-13T22:56:51.190Z,2.97
2019-03-13T22:59:19.330Z,3.00
2019-03-13T23:01:47.597Z,2.90
2019-03-13T23:04:15.772Z,3.37
2019-03-13T23:06:43.575Z,3.20
2019-03-13T23:09:11.881Z,3.37
2019-03-13T23:11:40.245Z,3.63
2019-03-13T23:14:08.065Z,3.80
2019-03-13T23:16:36.582Z,3.53
2019-03-13T23:19:04.706Z,3.90
2019-03-13T23:21:32.686Z,4.30
2019-03-13T23:24:00.550Z,3.77
2019-03-13T23:26:28.842Z,4.33
2019-03-13T23:28:57.104Z,4.13
2019-03-13T23:31:25.393Z,4.23
2019-03-13T23:33:53.198Z,3.93
2019-03-13T23:36:21.646Z,4.23
2019-03-13T23:38:50.141Z,3.53
2019-03-13T23:41:18.378Z,3.93
2019-03-13T23:43:46.550Z,4.20
2019-03-13T23:46:14.877Z,3.40
2019-03-13T23:48:43.246Z,3.47
2019-03-13T23:51:12.460Z,3.30
2019-03-13T23:53:40.339Z,5.47
2019-03-13T23:56:08.653Z,5.33
2019-03-13T23:58:36.819Z,4.00
